Time;durP1;ratioP1;P1;durP2;ratioP2;P2;SDS_P1;SDS_P2;PMS_P1;PMS_P2;Temp;Humidity;BMP_temperature;BMP_pressure;BME280_temperature;BME280_humidity;BME280_pressure;Samples;Min_cycle;Max_cycle;Signal;HPM_P1;HPM_P2
2021/04/27 00:01:50;;;;;;;;;;;6.40;99.90;;;;;;5092443;28;19919;-76
2021/04/27 00:04:21;;;;;;;;;;;6.40;99.90;;;;;;5094652;28;19926;-76
2021/04/27 00:06:47;;;;;;;;;;;6.40;99.90;;;;;;5091830;28;19912;-75
2021/04/27 00:09:12;;;;;;;;;;;6.40;99.90;;;;;;5082418;28;19908;-76
2021/04/27 00:11:38;;;;;;;;;;;6.30;99.90;;;;;;5097196;28;19915;-75
2021/04/27 00:14:05;;;;;;;;;;;6.20;99.90;;;;;;5094237;28;19914;-75
2021/04/27 00:16:31;;;;;;;;;;;6.20;99.90;;;;;;5092463;28;19908;-75
2021/04/27 00:18:56;;;;;;;;;;;6.10;99.90;;;;;;5092548;28;20276;-75
2021/04/27 00:21:22;;;;;;;;;;;6.20;99.90;;;;;;5093420;28;19911;-76
2021/04/27 00:23:47;;;;;;;;;;;6.30;99.90;;;;;;5093673;28;19908;-75
2021/04/27 00:26:13;;;;;;;;;;;6.30;99.90;;;;;;5093936;28;19908;-76
2021/04/27 00:28:38;;;;;;;;;;;6.20;99.90;;;;;;5094568;28;19915;-75
2021/04/27 00:31:04;;;;;;;;;;;6.10;99.90;;;;;;5089004;28;19912;-76
2021/04/27 00:33:29;;;;;;;;;;;6.10;99.90;;;;;;5093145;28;19958;-75
2021/04/27 00:35:55;;;;;;;;;;;6.20;99.90;;;;;;5092445;28;20318;-75
2021/04/27 00:38:20;;;;;;;;;;;6.10;99.90;;;;;;5092292;28;20438;-75
2021/04/27 00:40:46;;;;;;;;;;;6.00;99.90;;;;;;5095206;28;19961;-75
2021/04/27 00:43:12;;;;;;;;;;;6.10;99.90;;;;;;5094829;28;20287;-75
2021/04/27 00:45:37;;;;;;;;;;;6.10;99.90;;;;;;5092460;28;19915;-75
2021/04/27 00:48:03;;;;;;;;;;;5.90;99.90;;;;;;5090849;28;19908;-75
2021/04/27 00:50:30;;;;;;;;;;;5.90;99.90;;;;;;5091729;28;19934;-75
2021/04/27 00:52:55;;;;;;;;;;;5.90;99.90;;;;;;5095058;28;20428;-75
2021/04/27 00:55:22;;;;;;;;;;;5.80;99.90;;;;;;5079664;28;19948;-76
2021/04/27 00:57:47;;;;;;;;;;;5.80;99.90;;;;;;5081483;28;19908;-73
2021/04/27 01:00:17;;;;;;;;;;;5.70;99.90;;;;;;5075500;28;19951;-73
2021/04/27 01:02:43;;;;;;;;;;;5.70;99.90;;;;;;5077230;28;19912;-75
2021/04/27 01:05:11;;;;;;;;;;;5.70;99.90;;;;;;5076733;28;19930;-75
2021/04/27 01:07:40;;;;;;;;;;;5.70;99.90;;;;;;5089289;28;19908;-74
2021/04/27 01:10:06;;;;;;;;;;;5.70;99.90;;;;;;5106809;28;19914;-73
2021/04/27 01:12:33;;;;;;;;;;;5.70;99.90;;;;;;5112361;28;19912;-75
2021/04/27 01:15:04;;;;;;;;;;;5.60;99.90;;;;;;5107723;28;19971;-74
2021/04/27 01:17:30;;;;;;;;;;;5.70;99.90;;;;;;5117594;28;19907;-75
2021/04/27 01:20:14;;;;;;;;;;;5.70;99.90;;;;;;5107680;28;19919;-73
2021/04/27 01:22:57;;;;;;;;;;;5.60;99.90;;;;;;5096698;28;19920;-71
2021/04/27 01:25:42;;;;;;;;;;;5.60;99.90;;;;;;5090041;28;19961;-74
2021/04/27 01:28:08;;;;;;;;;;;5.60;99.90;;;;;;5076974;28;19908;-74
2021/04/27 01:30:38;;;;;;;;;;;5.50;99.90;;;;;;5083429;28;19991;-74
2021/04/27 01:33:15;;;;;;;;;;;5.50;99.90;;;;;;5092044;28;19962;-75
2021/04/27 01:35:41;;;;;;;;;;;5.50;99.90;;;;;;5087202;28;20377;-74
2021/04/27 01:38:07;;;;;;;;;;;5.50;99.90;;;;;;5084131;28;19978;-75
2021/04/27 01:40:32;;;;;;;;;;;5.50;99.90;;;;;;5084152;28;19908;-75
2021/04/27 01:43:03;;;;;;;;;;;5.50;99.90;;;;;;5074392;28;19912;-76
2021/04/27 01:45:29;;;;;;;;;;;5.50;99.90;;;;;;5083128;28;20610;-76
2021/04/27 01:47:55;;;;;;;;;;;5.40;99.90;;;;;;5093542;28;21279;-77
2021/04/27 01:50:21;;;;;;;;;;;5.30;99.90;;;;;;5092331;28;19916;-73
2021/04/27 01:52:48;;;;;;;;;;;5.30;99.90;;;;;;5095949;28;19908;-74
2021/04/27 01:55:13;;;;;;;;;;;5.40;99.90;;;;;;5091134;28;20387;-72
2021/04/27 01:57:39;;;;;;;;;;;5.50;99.90;;;;;;5085619;28;19955;-73
2021/04/27 02:00:07;;;;;;;;;;;5.40;99.90;;;;;;5092730;28;19947;-72
2021/04/27 02:02:33;;;;;;;;;;;5.40;99.90;;;;;;5089302;28;20261;-74
2021/04/27 02:04:58;;;;;;;;;;;5.40;99.90;;;;;;5093434;28;19920;-73
2021/04/27 02:07:24;;;;;;;;;;;5.40;99.90;;;;;;5093442;28;19908;-73
2021/04/27 02:09:50;;;;;;;;;;;5.40;99.90;;;;;;5092490;28;19939;-74
2021/04/27 02:12:15;;;;;;;;;;;5.30;99.90;;;;;;5093603;28;20226;-73
2021/04/27 02:14:41;;;;;;;;;;;5.30;99.90;;;;;;5091115;28;19912;-73
2021/04/27 02:17:14;;;;;;;;;;;5.30;99.90;;;;;;5092791;28;19908;-73
2021/04/27 02:19:40;;;;;;;;;;;5.20;99.90;;;;;;5091931;28;19908;-73
2021/04/27 02:22:06;;;;;;;;;;;5.20;99.90;;;;;;5093308;28;20045;-73
2021/04/27 02:24:33;;;;;;;;;;;5.20;99.90;;;;;;5096445;28;19916;-72
2021/04/27 02:26:59;;;;;;;;;;;5.20;99.90;;;;;;5097425;28;20275;-73
2021/04/27 02:29:25;;;;;;;;;;;5.20;99.90;;;;;;5096280;28;19987;-73
2021/04/27 02:31:51;;;;;;;;;;;5.20;99.90;;;;;;5095088;28;19969;-73
2021/04/27 02:34:21;;;;;;;;;;;5.30;99.90;;;;;;5091433;28;19915;-74
2021/04/27 02:36:47;;;;;;;;;;;5.30;99.90;;;;;;5085658;28;19923;-74
2021/04/27 02:39:13;;;;;;;;;;;5.30;99.90;;;;;;5096539;28;19907;-74
2021/04/27 02:41:38;;;;;;;;;;;5.30;99.90;;;;;;5097185;28;19912;-74
2021/04/27 02:44:06;;;;;;;;;;;5.20;99.90;;;;;;5096327;28;20991;-74
2021/04/27 02:46:32;;;;;;;;;;;5.20;99.90;;;;;;5094925;28;19912;-74
2021/04/27 02:48:57;;;;;;;;;;;5.20;99.90;;;;;;5096771;28;19908;-72
2021/04/27 02:51:23;;;;;;;;;;;5.20;99.90;;;;;;5089721;28;20386;-73
2021/04/27 02:53:48;;;;;;;;;;;5.10;99.90;;;;;;5089058;28;19908;-73
2021/04/27 02:56:14;;;;;;;;;;;5.10;99.90;;;;;;5097949;28;19934;-73
2021/04/27 02:58:40;;;;;;;;;;;5.10;99.90;;;;;;5103107;28;19954;-73
2021/04/27 03:01:06;;;;;;;;;;;5.10;99.90;;;;;;5109804;28;19908;-74
2021/04/27 03:03:32;;;;;;;;;;;5.10;99.90;;;;;;5106321;28;19908;-73
2021/04/27 03:05:57;;;;;;;;;;;5.10;99.90;;;;;;5099970;28;19912;-73
2021/04/27 03:08:23;;;;;;;;;;;5.00;99.90;;;;;;5111907;28;19922;-73
2021/04/27 03:10:48;;;;;;;;;;;5.00;99.90;;;;;;5119540;28;19911;-73
2021/04/27 03:13:14;;;;;;;;;;;5.00;99.90;;;;;;5105382;28;19954;-74
2021/04/27 03:15:40;;;;;;;;;;;5.00;99.90;;;;;;5099747;28;19908;-72
2021/04/27 03:18:05;;;;;;;;;;;4.90;99.90;;;;;;5097559;28;20006;-73
2021/04/27 03:20:31;;;;;;;;;;;5.00;99.90;;;;;;5098172;28;19936;-74
2021/04/27 03:22:56;;;;;;;;;;;5.00;99.90;;;;;;5096224;28;19916;-74
2021/04/27 03:25:22;;;;;;;;;;;4.90;99.90;;;;;;5096187;28;19908;-73
2021/04/27 03:27:47;;;;;;;;;;;4.90;99.90;;;;;;5096224;28;20417;-74
2021/04/27 03:30:13;;;;;;;;;;;4.80;99.90;;;;;;5096656;28;19908;-74
2021/04/27 03:32:39;;;;;;;;;;;4.80;99.90;;;;;;5093076;28;19915;-74
2021/04/27 03:35:06;;;;;;;;;;;4.80;99.90;;;;;;5094767;28;19948;-74
2021/04/27 03:37:32;;;;;;;;;;;4.70;99.90;;;;;;5094208;28;20382;-74
2021/04/27 03:39:57;;;;;;;;;;;4.80;99.90;;;;;;5085561;28;19973;-74
2021/04/27 03:42:23;;;;;;;;;;;4.70;99.90;;;;;;5092539;28;19952;-74
2021/04/27 03:44:48;;;;;;;;;;;4.70;99.90;;;;;;5096079;28;19915;-73
2021/04/27 03:47:14;;;;;;;;;;;4.70;99.90;;;;;;5095214;28;19908;-73
2021/04/27 03:49:39;;;;;;;;;;;4.70;99.90;;;;;;5095627;28;19957;-73
2021/04/27 03:52:05;;;;;;;;;;;4.70;99.90;;;;;;5095673;28;20387;-74
2021/04/27 03:54:30;;;;;;;;;;;4.70;99.90;;;;;;5095421;28;19912;-74
2021/04/27 03:56:56;;;;;;;;;;;4.60;99.90;;;;;;5094236;28;19991;-73
2021/04/27 03:59:21;;;;;;;;;;;4.60;99.90;;;;;;5095104;28;19908;-73
2021/04/27 04:01:47;;;;;;;;;;;4.60;99.90;;;;;;5093625;28;19916;-73
2021/04/27 04:04:13;;;;;;;;;;;4.60;99.90;;;;;;5088524;28;19955;-73
2021/04/27 04:06:38;;;;;;;;;;;4.70;99.90;;;;;;5093655;28;20416;-74
2021/04/27 04:09:05;;;;;;;;;;;4.70;99.90;;;;;;5089040;28;19923;-73
2021/04/27 04:11:34;;;;;;;;;;;4.60;99.90;;;;;;5093741;28;19912;-74
2021/04/27 04:14:01;;;;;;;;;;;4.60;99.90;;;;;;5086346;28;19908;-73
2021/04/27 04:16:26;;;;;;;;;;;4.60;99.90;;;;;;5094177;28;19961;-74
2021/04/27 04:18:52;;;;;;;;;;;4.60;99.90;;;;;;5094948;28;19908;-73
2021/04/27 04:21:18;;;;;;;;;;;4.60;99.90;;;;;;5087081;28;19908;-74
2021/04/27 04:23:43;;;;;;;;;;;4.60;99.90;;;;;;5080295;28;19999;-74
2021/04/27 04:26:09;;;;;;;;;;;4.70;99.90;;;;;;5085728;28;19908;-74
2021/04/27 04:28:34;;;;;;;;;;;4.60;99.90;;;;;;5089081;28;19915;-73
2021/04/27 04:31:00;;;;;;;;;;;4.60;99.90;;;;;;5092315;28;19908;-74
2021/04/27 04:33:26;;;;;;;;;;;4.60;99.90;;;;;;5088249;28;19915;-73
2021/04/27 04:35:51;;;;;;;;;;;4.60;99.90;;;;;;5093739;28;19912;-73
2021/04/27 04:38:18;;;;;;;;;;;4.60;99.90;;;;;;5095268;28;19908;-73
2021/04/27 04:40:45;;;;;;;;;;;4.60;99.90;;;;;;5094675;28;19908;-73
2021/04/27 04:43:10;;;;;;;;;;;4.70;99.90;;;;;;5104958;28;19919;-72
2021/04/27 04:45:36;;;;;;;;;;;4.70;99.90;;;;;;5113329;28;19908;-72
2021/04/27 04:48:01;;;;;;;;;;;4.70;99.90;;;;;;5117140;28;19935;-73
2021/04/27 04:50:27;;;;;;;;;;;4.70;99.90;;;;;;5116027;28;19916;-73
2021/04/27 04:52:52;;;;;;;;;;;4.70;99.90;;;;;;5097330;28;19908;-73
2021/04/27 04:55:18;;;;;;;;;;;4.70;99.90;;;;;;5097492;28;19942;-73
2021/04/27 04:57:43;;;;;;;;;;;4.70;99.90;;;;;;5095246;28;19908;-74
2021/04/27 05:00:11;;;;;;;;;;;4.60;99.90;;;;;;5094500;28;20265;-73
2021/04/27 05:02:36;;;;;;;;;;;4.70;99.90;;;;;;5093735;28;19912;-73
2021/04/27 05:05:02;;;;;;;;;;;4.80;99.90;;;;;;5094434;28;20338;-74
2021/04/27 05:07:28;;;;;;;;;;;5.00;99.90;;;;;;5090541;28;20010;-74
2021/04/27 05:09:54;;;;;;;;;;;5.00;99.90;;;;;;5073072;28;19912;-73
2021/04/27 05:12:19;;;;;;;;;;;5.10;99.90;;;;;;5091596;28;20417;-73
2021/04/27 05:14:45;;;;;;;;;;;5.10;99.90;;;;;;5085484;28;19986;-73
2021/04/27 05:17:12;;;;;;;;;;;5.20;99.90;;;;;;5092661;28;19969;-73
2021/04/27 05:19:38;;;;;;;;;;;5.30;99.90;;;;;;5085253;28;19908;-73
2021/04/27 05:22:04;;;;;;;;;;;5.30;99.90;;;;;;5092802;28;19912;-73
2021/04/27 05:24:30;;;;;;;;;;;5.20;99.90;;;;;;5093793;28;20386;-73
2021/04/27 05:26:55;;;;;;;;;;;5.30;99.90;;;;;;5092025;28;19951;-73
2021/04/27 05:29:21;;;;;;;;;;;5.40;99.90;;;;;;5090926;28;19911;-73
2021/04/27 05:31:48;;;;;;;;;;;5.50;99.90;;;;;;5091863;28;19953;-74
2021/04/27 05:34:14;;;;;;;;;;;5.60;99.90;;;;;;5086779;28;19914;-73
2021/04/27 05:36:40;;;;;;;;;;;5.60;99.90;;;;;;5088203;28;20348;-73
2021/04/27 05:39:05;;;;;;;;;;;5.70;99.90;;;;;;5093448;28;19951;-73
2021/04/27 05:41:31;;;;;;;;;;;5.80;99.90;;;;;;5092542;28;19916;-73
2021/04/27 05:43:56;;;;;;;;;;;6.00;99.90;;;;;;5079384;28;19909;-73
2021/04/27 05:46:22;;;;;;;;;;;6.00;99.90;;;;;;5082991;28;19915;-73
2021/04/27 05:48:47;;;;;;;;;;;6.00;99.90;;;;;;5091727;28;19908;-72
2021/04/27 05:51:13;;;;;;;;;;;6.20;99.90;;;;;;5091824;28;19951;-73
2021/04/27 05:53:38;;;;;;;;;;;6.30;99.90;;;;;;5092155;28;20411;-75
2021/04/27 05:56:04;;;;;;;;;;;6.40;99.90;;;;;;5091452;28;19908;-73
2021/04/27 05:58:30;;;;;;;;;;;6.40;99.90;;;;;;5089797;28;19907;-74
2021/04/27 06:00:55;;;;;;;;;;;6.50;99.90;;;;;;5093217;28;19908;-74
2021/04/27 06:03:20;;;;;;;;;;;6.60;99.90;;;;;;5093113;28;19916;-75
2021/04/27 06:05:46;;;;;;;;;;;6.60;99.90;;;;;;5092724;28;20011;-73
2021/04/27 06:08:11;;;;;;;;;;;6.60;99.90;;;;;;5091890;28;19939;-73
2021/04/27 06:10:37;;;;;;;;;;;6.70;99.90;;;;;;5092247;28;19908;-73
2021/04/27 06:13:02;;;;;;;;;;;6.90;99.90;;;;;;5091912;28;19908;-73
2021/04/27 06:15:28;;;;;;;;;;;7.30;99.90;;;;;;5091279;28;20291;-75
2021/04/27 06:17:53;;;;;;;;;;;7.50;99.90;;;;;;5090801;28;19908;-74
2021/04/27 06:20:19;;;;;;;;;;;7.80;99.90;;;;;;5092186;28;19904;-74
2021/04/27 06:22:45;;;;;;;;;;;7.80;99.90;;;;;;5091933;28;19912;-73
2021/04/27 06:25:10;;;;;;;;;;;7.90;99.90;;;;;;5089070;28;19915;-74
2021/04/27 06:27:36;;;;;;;;;;;7.90;99.90;;;;;;5094047;28;19959;-74
2021/04/27 06:30:03;;;;;;;;;;;7.90;99.90;;;;;;5099420;28;19925;-74
2021/04/27 06:32:29;;;;;;;;;;;7.90;99.90;;;;;;5103487;28;20017;-73
2021/04/27 06:34:54;;;;;;;;;;;7.90;99.90;;;;;;5111300;28;20032;-73
2021/04/27 06:37:20;;;;;;;;;;;8.00;99.90;;;;;;5112205;28;19908;-73
2021/04/27 06:39:46;;;;;;;;;;;8.10;99.90;;;;;;5114085;28;19923;-73
2021/04/27 06:42:12;;;;;;;;;;;8.20;99.90;;;;;;5115581;28;19942;-73
2021/04/27 06:44:37;;;;;;;;;;;8.30;99.90;;;;;;5117184;28;19896;-73
2021/04/27 06:47:06;;;;;;;;;;;8.20;99.90;;;;;;5117859;28;19943;-73
2021/04/27 06:49:33;;;;;;;;;;;8.30;99.90;;;;;;5108542;28;19943;-73
2021/04/27 06:51:58;;;;;;;;;;;8.30;99.90;;;;;;5095247;28;20379;-74
2021/04/27 06:54:23;;;;;;;;;;;8.40;99.90;;;;;;5096316;28;19908;-75
2021/04/27 06:56:49;;;;;;;;;;;8.50;99.90;;;;;;5094522;28;19945;-75
2021/04/27 06:59:16;;;;;;;;;;;8.50;99.90;;;;;;5086980;28;19908;-75
2021/04/27 07:01:42;;;;;;;;;;;8.70;99.90;;;;;;5086403;28;19912;-74
2021/04/27 07:04:07;;;;;;;;;;;8.70;99.90;;;;;;5089302;28;19922;-74
2021/04/27 07:06:33;;;;;;;;;;;8.70;99.90;;;;;;5091916;28;19912;-75
2021/04/27 07:08:58;;;;;;;;;;;8.70;99.90;;;;;;5091578;28;19908;-73
2021/04/27 07:11:24;;;;;;;;;;;8.80;99.90;;;;;;5095306;28;19995;-74
2021/04/27 07:13:49;;;;;;;;;;;9.10;99.90;;;;;;5094535;28;19908;-73
2021/04/27 07:16:19;;;;;;;;;;;9.30;99.90;;;;;;5095104;28;20270;-74
2021/04/27 07:18:44;;;;;;;;;;;9.30;99.90;;;;;;5095934;28;19915;-74
2021/04/27 07:21:10;;;;;;;;;;;9.40;99.90;;;;;;5096209;28;19905;-74
2021/04/27 07:23:35;;;;;;;;;;;9.40;99.90;;;;;;5095062;28;20379;-74
2021/04/27 07:26:01;;;;;;;;;;;9.40;99.90;;;;;;5094503;28;20004;-74
2021/04/27 07:28:26;;;;;;;;;;;9.30;99.90;;;;;;5096053;28;19957;-74
2021/04/27 07:30:52;;;;;;;;;;;9.50;99.90;;;;;;5094742;28;19930;-74
2021/04/27 07:33:18;;;;;;;;;;;9.70;99.90;;;;;;5094927;28;19914;-75
2021/04/27 07:35:44;;;;;;;;;;;9.90;99.90;;;;;;5093877;28;19904;-74
2021/04/27 07:38:09;;;;;;;;;;;9.90;99.90;;;;;;5096013;28;20349;-74
2021/04/27 07:40:36;;;;;;;;;;;10.10;99.90;;;;;;5094102;28;19907;-74
2021/04/27 07:43:02;;;;;;;;;;;10.30;99.90;;;;;;5095612;28;19915;-74
2021/04/27 07:45:31;;;;;;;;;;;10.40;99.90;;;;;;5094508;28;20279;-75
2021/04/27 07:48:00;;;;;;;;;;;10.70;99.90;;;;;;5095202;28;19948;-74
2021/04/27 07:50:26;;;;;;;;;;;10.80;99.80;;;;;;5095690;28;20444;-74
2021/04/27 07:52:51;;;;;;;;;;;10.90;99.50;;;;;;5093741;28;20007;-73
2021/04/27 07:55:17;;;;;;;;;;;10.90;98.90;;;;;;5095486;28;20002;-73
2021/04/27 07:57:43;;;;;;;;;;;11.10;98.40;;;;;;5087455;28;20393;-73
2021/04/27 08:00:09;;;;;;;;;;;11.30;98.60;;;;;;5094676;28;19948;-74
2021/04/27 08:02:35;;;;;;;;;;;11.30;98.10;;;;;;5094051;28;20280;-74
2021/04/27 08:05:01;;;;;;;;;;;11.40;98.00;;;;;;5078962;28;19920;-72
2021/04/27 08:07:26;;;;;;;;;;;11.40;97.80;;;;;;5094110;28;19908;-73
2021/04/27 08:09:52;;;;;;;;;;;11.50;97.80;;;;;;5089050;28;19908;-73
2021/04/27 08:12:17;;;;;;;;;;;11.40;97.30;;;;;;5093165;28;19903;-73
2021/04/27 08:14:43;;;;;;;;;;;11.50;97.10;;;;;;5093908;28;19930;-73
2021/04/27 08:17:08;;;;;;;;;;;11.60;96.20;;;;;;5091973;28;19915;-74
2021/04/27 08:19:34;;;;;;;;;;;11.70;96.30;;;;;;5093884;28;19907;-73
2021/04/27 08:22:00;;;;;;;;;;;11.80;96.20;;;;;;5094291;28;19922;-73
2021/04/27 08:24:25;;;;;;;;;;;12.00;95.90;;;;;;5095021;28;19990;-74
2021/04/27 08:26:51;;;;;;;;;;;12.10;95.90;;;;;;5094533;28;19903;-73
2021/04/27 08:29:16;;;;;;;;;;;12.10;95.40;;;;;;5094163;28;20387;-72
2021/04/27 08:31:42;;;;;;;;;;;12.10;95.10;;;;;;5093517;28;19908;-75
2021/04/27 08:34:07;;;;;;;;;;;12.20;94.90;;;;;;5095406;28;19904;-72
2021/04/27 08:36:33;;;;;;;;;;;12.50;94.30;;;;;;5094943;28;20006;-74
2021/04/27 08:38:58;;;;;;;;;;;12.70;93.80;;;;;;5094958;28;20261;-72
2021/04/27 08:41:25;;;;;;;;;;;13.10;93.50;;;;;;5093884;28;19908;-72
2021/04/27 08:43:51;;;;;;;;;;;13.40;92.90;;;;;;5088281;28;19952;-73
2021/04/27 08:46:16;;;;;;;;;;;13.50;92.30;;;;;;5105928;28;19927;-73
2021/04/27 08:48:42;;;;;;;;;;;13.60;92.20;;;;;;5106084;28;19904;-73
2021/04/27 08:51:08;;;;;;;;;;;13.90;92.00;;;;;;5108906;28;19908;-73
2021/04/27 08:53:33;;;;;;;;;;;14.10;92.50;;;;;;5112571;28;19911;-73
2021/04/27 08:55:59;;;;;;;;;;;14.40;91.40;;;;;;5112326;28;19908;-72
2021/04/27 08:58:24;;;;;;;;;;;14.70;91.00;;;;;;5114790;28;19939;-73
2021/04/27 09:00:50;;;;;;;;;;;15.00;90.20;;;;;;5115668;28;19916;-72
2021/04/27 09:03:16;;;;;;;;;;;15.40;89.10;;;;;;5111863;28;19916;-71
2021/04/27 09:05:43;;;;;;;;;;;15.40;87.80;;;;;;5115652;28;19900;-72
2021/04/27 09:08:08;;;;;;;;;;;15.60;87.90;;;;;;5105750;28;19931;-73
2021/04/27 09:10:43;;;;;;;;;;;15.50;86.70;;;;;;5084316;28;19904;-73
2021/04/27 09:13:10;;;;;;;;;;;15.70;84.90;;;;;;5078349;28;19904;-73
2021/04/27 09:15:38;;;;;;;;;;;16.00;84.90;;;;;;5091509;28;19915;-73
2021/04/27 09:18:22;;;;;;;;;;;16.10;85.70;;;;;;5093013;28;20396;-73
2021/04/27 09:20:52;;;;;;;;;;;16.60;83.80;;;;;;5077498;28;20237;-73
2021/04/27 09:23:17;;;;;;;;;;;17.30;79.40;;;;;;5098700;28;20008;-74
2021/04/27 09:26:03;;;;;;;;;;;17.70;79.50;;;;;;5096413;28;19906;-74
2021/04/27 09:28:32;;;;;;;;;;;17.90;76.50;;;;;;5095046;28;19961;-72
2021/04/27 09:30:58;;;;;;;;;;;17.70;77.50;;;;;;5093357;28;19957;-73
2021/04/27 09:33:25;;;;;;;;;;;18.10;77.50;;;;;;5092722;28;19908;-74
2021/04/27 09:35:51;;;;;;;;;;;18.90;72.70;;;;;;5093133;28;20395;-73
2021/04/27 09:38:21;;;;;;;;;;;19.20;71.10;;;;;;5096286;28;19990;-74
2021/04/27 09:40:46;;;;;;;;;;;18.80;71.50;;;;;;5087809;28;19918;-73
2021/04/27 09:43:12;;;;;;;;;;;18.80;71.60;;;;;;5094500;28;20287;-73
2021/04/27 09:45:39;;;;;;;;;;;19.20;72.00;;;;;;5092860;28;19952;-73
2021/04/27 09:48:05;;;;;;;;;;;19.30;70.20;;;;;;5082977;28;19913;-74
2021/04/27 09:50:30;;;;;;;;;;;19.60;68.30;;;;;;5089713;28;19915;-73
2021/04/27 09:52:56;;;;;;;;;;;19.40;69.50;;;;;;5091304;28;19977;-73
2021/04/27 09:55:21;;;;;;;;;;;19.30;69.70;;;;;;5086784;28;19908;-73
2021/04/27 09:57:48;;;;;;;;;;;19.30;67.40;;;;;;5092834;28;19908;-73
2021/04/27 10:00:33;;;;;;;;;;;19.10;67.50;;;;;;5090475;28;19915;-72
2021/04/27 10:03:01;;;;;;;;;;;19.40;66.20;;;;;;5078446;28;19912;-73
2021/04/27 10:05:27;;;;;;;;;;;19.60;66.40;;;;;;5093422;28;19916;-73
2021/04/27 10:07:54;;;;;;;;;;;19.40;68.50;;;;;;5090579;28;19908;-72
2021/04/27 10:10:19;;;;;;;;;;;19.30;66.70;;;;;;5091755;28;19908;-73
2021/04/27 10:12:47;;;;;;;;;;;19.30;63.60;;;;;;5092262;28;19908;-72
2021/04/27 10:15:12;;;;;;;;;;;18.60;65.40;;;;;;5095759;28;19950;-72
2021/04/27 10:17:38;;;;;;;;;;;19.00;64.30;;;;;;5087094;28;19931;-72
2021/04/27 10:20:06;;;;;;;;;;;19.10;65.60;;;;;;5093718;28;19911;-72
2021/04/27 10:22:32;;;;;;;;;;;19.10;64.00;;;;;;5092196;28;19962;-72
2021/04/27 10:24:58;;;;;;;;;;;19.30;63.30;;;;;;5104558;28;19904;-73
2021/04/27 10:27:27;;;;;;;;;;;18.90;65.80;;;;;;5094807;28;19908;-72
2021/04/27 10:29:57;;;;;;;;;;;18.90;65.30;;;;;;5096089;28;20002;-73
2021/04/27 10:32:24;;;;;;;;;;;18.80;64.90;;;;;;5092680;28;19915;-72
2021/04/27 10:34:58;;;;;;;;;;;19.00;62.60;;;;;;5091756;28;19923;-73
2021/04/27 10:37:29;;;;;;;;;;;18.60;63.20;;;;;;5093509;28;19904;-73
2021/04/27 10:39:55;;;;;;;;;;;18.70;64.30;;;;;;5092868;28;20419;-73
2021/04/27 10:42:22;;;;;;;;;;;18.90;65.00;;;;;;5093285;28;19999;-73
2021/04/27 10:44:50;;;;;;;;;;;19.00;64.80;;;;;;5100545;28;20317;-73
2021/04/27 10:47:19;;;;;;;;;;;18.90;63.50;;;;;;5082839;28;19908;-73
2021/04/27 10:49:44;;;;;;;;;;;18.70;63.20;;;;;;5097520;28;20123;-73
2021/04/27 10:52:36;;;;;;;;;;;18.70;62.20;;;;;;5094814;28;20010;-73
2021/04/27 10:55:21;;;;;;;;;;;18.50;63.30;;;;;;5094624;28;19908;-73
2021/04/27 10:57:46;;;;;;;;;;;18.50;62.00;;;;;;5091922;28;20199;-73
2021/04/27 11:00:31;;;;;;;;;;;18.30;62.00;;;;;;5080056;28;19931;-73
2021/04/27 11:03:12;;;;;;;;;;;18.10;62.50;;;;;;5096621;28;19949;-73
2021/04/27 11:06:09;;;;;;;;;;;17.70;62.90;;;;;;5090263;28;19942;-74
2021/04/27 11:08:46;;;;;;;;;;;17.70;64.40;;;;;;5053668;28;19904;-73
2021/04/27 11:11:23;;;;;;;;;;;17.70;64.50;;;;;;5092544;28;19911;-72
2021/04/27 11:13:50;;;;;;;;;;;17.70;61.90;;;;;;5092135;28;19931;-72
2021/04/27 11:16:22;;;;;;;;;;;17.50;61.30;;;;;;5094799;28;19966;-72
2021/04/27 11:18:48;;;;;;;;;;;17.40;64.30;;;;;;5096582;28;20375;-72
2021/04/27 11:21:13;;;;;;;;;;;17.20;61.00;;;;;;5095646;28;19916;-73
2021/04/27 11:23:44;;;;;;;;;;;17.10;64.30;;;;;;5089847;28;19919;-73
2021/04/27 11:26:28;;;;;;;;;;;17.10;64.20;;;;;;5094162;28;20288;-72
2021/04/27 11:28:55;;;;;;;;;;;17.10;62.60;;;;;;5090853;28;19908;-71
2021/04/27 11:31:20;;;;;;;;;;;17.20;61.60;;;;;;5093947;28;19961;-72
2021/04/27 11:33:56;;;;;;;;;;;17.40;61.80;;;;;;5094698;28;20003;-73
2021/04/27 11:36:35;;;;;;;;;;;17.60;62.80;;;;;;5096401;28;20372;-72
2021/04/27 11:39:10;;;;;;;;;;;17.70;62.10;;;;;;5095211;28;19971;-72
2021/04/27 11:42:02;;;;;;;;;;;17.90;60.80;;;;;;5094361;28;19908;-73
2021/04/27 11:44:33;;;;;;;;;;;17.70;60.10;;;;;;5078739;28;19961;-73
2021/04/27 11:47:17;;;;;;;;;;;17.70;60.50;;;;;;5092902;28;19908;-72
2021/04/27 11:49:46;;;;;;;;;;;17.70;60.00;;;;;;5091160;28;19908;-72
2021/04/27 11:52:12;;;;;;;;;;;17.50;60.90;;;;;;5087598;28;19930;-73
2021/04/27 11:54:37;;;;;;;;;;;17.50;60.80;;;;;;5096198;28;19908;-72
2021/04/27 11:57:03;;;;;;;;;;;17.30;60.00;;;;;;5092443;28;20317;-73
2021/04/27 11:59:29;;;;;;;;;;;17.30;60.60;;;;;;5075855;28;20345;-74
2021/04/27 12:02:01;;;;;;;;;;;17.30;62.30;;;;;;5087738;28;19934;-73
2021/04/27 12:04:26;;;;;;;;;;;17.30;60.00;;;;;;5095065;28;20248;-74
2021/04/27 12:07:00;;;;;;;;;;;17.20;61.20;;;;;;5094964;28;19908;-73
2021/04/27 12:09:25;;;;;;;;;;;17.30;61.60;;;;;;5094841;28;19908;-73
2021/04/27 12:11:51;;;;;;;;;;;17.50;62.40;;;;;;5089149;28;19983;-73
2021/04/27 12:14:17;;;;;;;;;;;17.60;62.30;;;;;;5098606;28;19904;-73
2021/04/27 12:16:46;;;;;;;;;;;17.70;60.80;;;;;;5094886;28;20078;-73
2021/04/27 12:19:16;;;;;;;;;;;17.80;60.20;;;;;;5096004;28;19915;-72
2021/04/27 12:21:42;;;;;;;;;;;17.70;60.10;;;;;;5097664;28;19911;-72
2021/04/27 12:24:28;;;;;;;;;;;17.70;60.70;;;;;;5102123;28;20365;-72
2021/04/27 12:26:58;;;;;;;;;;;17.50;60.30;;;;;;5107348;28;20444;-73
2021/04/27 12:29:25;;;;;;;;;;;17.70;61.20;;;;;;5103202;28;19908;-72
2021/04/27 12:31:51;;;;;;;;;;;17.80;60.70;;;;;;5107085;28;19991;-73
2021/04/27 12:34:17;;;;;;;;;;;17.90;59.50;;;;;;5107926;28;19922;-73
2021/04/27 12:36:47;;;;;;;;;;;17.90;61.00;;;;;;5107380;28;19908;-73
2021/04/27 12:39:21;;;;;;;;;;;17.90;59.20;;;;;;5107209;28;19992;-72
2021/04/27 12:41:47;;;;;;;;;;;17.80;60.50;;;;;;5110438;28;19908;-73
2021/04/27 12:44:25;;;;;;;;;;;17.80;61.90;;;;;;5112400;28;19946;-73
2021/04/27 12:46:50;;;;;;;;;;;18.10;61.10;;;;;;5112113;28;19916;-72
2021/04/27 12:49:16;;;;;;;;;;;18.20;59.30;;;;;;5117582;28;19914;-73
2021/04/27 12:51:42;;;;;;;;;;;18.20;61.10;;;;;;5116849;28;19940;-74
2021/04/27 12:54:30;;;;;;;;;;;18.40;60.30;;;;;;5115540;28;19934;-74
2021/04/27 12:57:05;;;;;;;;;;;18.40;60.50;;;;;;5117123;28;19937;-72
2021/04/27 12:59:33;;;;;;;;;;;18.50;59.20;;;;;;5114143;28;19908;-73
2021/04/27 13:02:17;;;;;;;;;;;18.70;58.70;;;;;;5097542;28;20022;-72
2021/04/27 13:04:44;;;;;;;;;;;18.70;60.00;;;;;;5078506;28;19923;-74
2021/04/27 13:07:21;;;;;;;;;;;18.60;57.80;;;;;;5093813;28;19987;-75
2021/04/27 13:09:47;;;;;;;;;;;18.50;60.60;;;;;;5083194;28;19908;-74
2021/04/27 13:12:14;;;;;;;;;;;18.60;60.40;;;;;;5095476;28;19953;-74
2021/04/27 13:14:42;;;;;;;;;;;18.80;58.30;;;;;;5079712;28;19908;-75
2021/04/27 13:17:21;;;;;;;;;;;18.90;58.50;;;;;;5095079;28;19904;-73
2021/04/27 13:19:48;;;;;;;;;;;19.10;58.30;;;;;;5089974;28;20414;-74
2021/04/27 13:22:15;;;;;;;;;;;19.10;60.60;;;;;;5091855;28;19912;-76
2021/04/27 13:24:41;;;;;;;;;;;19.00;57.50;;;;;;5091839;28;19919;-73
2021/04/27 13:27:09;;;;;;;;;;;19.00;59.30;;;;;;5088455;28;19969;-74
2021/04/27 13:29:36;;;;;;;;;;;19.10;58.50;;;;;;5090199;28;20279;-74
2021/04/27 13:32:20;;;;;;;;;;;19.00;60.30;;;;;;5090337;28;19912;-75
2021/04/27 13:34:46;;;;;;;;;;;18.90;57.20;;;;;;5093485;28;20387;-74
2021/04/27 13:37:12;;;;;;;;;;;18.80;58.70;;;;;;5088805;28;19915;-77
2021/04/27 13:39:37;;;;;;;;;;;18.70;58.20;;;;;;5079628;28;19908;-73
2021/04/27 13:42:03;;;;;;;;;;;18.70;57.80;;;;;;5091744;28;20280;-74
2021/04/27 13:44:29;;;;;;;;;;;18.70;58.10;;;;;;5086898;28;20015;-73
2021/04/27 13:46:54;;;;;;;;;;;18.80;59.60;;;;;;5089455;28;19991;-74
2021/04/27 13:49:20;;;;;;;;;;;19.00;58.70;;;;;;5091428;28;20018;-73
2021/04/27 13:51:46;;;;;;;;;;;19.00;59.10;;;;;;5087832;28;19944;-75
2021/04/27 13:54:11;;;;;;;;;;;19.00;57.80;;;;;;5094753;28;20292;-73
2021/04/27 13:56:37;;;;;;;;;;;19.00;58.80;;;;;;5092976;28;19990;-74
2021/04/27 13:59:02;;;;;;;;;;;18.90;59.10;;;;;;5092274;28;19914;-76
2021/04/27 14:01:30;;;;;;;;;;;18.80;57.80;;;;;;5083546;28;20181;-74
2021/04/27 14:03:55;;;;;;;;;;;18.80;60.50;;;;;;5078494;28;19935;-73
2021/04/27 14:06:21;;;;;;;;;;;18.90;61.00;;;;;;5073380;28;19913;-73
2021/04/27 14:08:46;;;;;;;;;;;18.90;60.10;;;;;;5088028;28;20355;-74
2021/04/27 14:11:11;;;;;;;;;;;19.00;60.10;;;;;;5089981;28;19987;-74
2021/04/27 14:13:37;;;;;;;;;;;19.20;58.60;;;;;;5090132;28;19914;-72
2021/04/27 14:16:03;;;;;;;;;;;19.10;58.70;;;;;;5091528;28;19908;-72
2021/04/27 14:18:28;;;;;;;;;;;19.10;58.50;;;;;;5091862;28;19930;-72
2021/04/27 14:20:54;;;;;;;;;;;19.20;58.50;;;;;;5095575;28;19915;-72
2021/04/27 14:23:20;;;;;;;;;;;19.40;58.60;;;;;;5097466;28;19916;-72
2021/04/27 14:25:45;;;;;;;;;;;19.40;60.20;;;;;;5097341;28;19991;-72